sensor_id;sensor_type;location;lat;lon;timestamp;pressure;altitude;pressure_sealevel;temperature;humidity
64876;BME280;51369;49.862;9.908;2023-03-03T00:01:31;98603.19;;;2.07;62.10
64876;BME280;51369;49.862;9.908;2023-03-03T00:03:58;98601.44;;;2.04;62.02
64876;BME280;51369;49.862;9.908;2023-03-03T00:06:23;98595.22;;;2.04;61.98
64876;BME280;51369;49.862;9.908;2023-03-03T00:08:50;98592.56;;;2.04;62.43
64876;BME280;51369;49.862;9.908;2023-03-03T00:11:15;98591.66;;;2.03;62.03
64876;BME280;51369;49.862;9.908;2023-03-03T00:13:53;98596.13;;;2.01;61.91
64876;BME280;51369;49.862;9.908;2023-03-03T00:16:33;98600.56;;;1.98;62.48
64876;BME280;51369;49.862;9.908;2023-03-03T00:19:00;98603.22;;;1.98;62.31
64876;BME280;51369;49.862;9.908;2023-03-03T00:21:39;98603.25;;;1.94;62.89
64876;BME280;51369;49.862;9.908;2023-03-03T00:24:37;98604.16;;;1.90;62.74
64876;BME280;51369;49.862;9.908;2023-03-03T00:27:16;98604.16;;;1.89;63.29
64876;BME280;51369;49.862;9.908;2023-03-03T00:29:45;98599.75;;;1.86;62.16
64876;BME280;51369;49.862;9.908;2023-03-03T00:32:37;98605.09;;;1.82;61.86
64876;BME280;51369;49.862;9.908;2023-03-03T00:35:28;98617.53;;;1.78;62.67
64876;BME280;51369;49.862;9.908;2023-03-03T00:38:01;98609.53;;;1.77;63.16
64876;BME280;51369;49.862;9.908;2023-03-03T00:40:36;98606.88;;;1.75;63.24
64876;BME280;51369;49.862;9.908;2023-03-03T00:43:13;98613.16;;;1.71;63.00
64876;BME280;51369;49.862;9.908;2023-03-03T00:45:43;98611.38;;;1.70;63.31
64876;BME280;51369;49.862;9.908;2023-03-03T00:50:59;98614.94;;;1.69;64.42
64876;BME280;51369;49.862;9.908;2023-03-03T00:53:29;98614.94;;;1.66;63.53
64876;BME280;51369;49.862;9.908;2023-03-03T00:55:55;98617.59;;;1.65;63.47
64876;BME280;51369;49.862;9.908;2023-03-03T00:58:22;98623.81;;;1.63;63.58
64876;BME280;51369;49.862;9.908;2023-03-03T01:00:51;98612.28;;;1.63;64.55
64876;BME280;51369;49.862;9.908;2023-03-03T01:03:22;98617.63;;;1.60;64.32
64876;BME280;51369;49.862;9.908;2023-03-03T01:05:49;98611.41;;;1.59;64.09
64876;BME280;51369;49.862;9.908;2023-03-03T01:08:15;98613.19;;;1.59;64.96
64876;BME280;51369;49.862;9.908;2023-03-03T01:10:47;98614.06;;;1.59;65.05
64876;BME280;51369;49.862;9.908;2023-03-03T01:13:16;98612.28;;;1.60;65.32
64876;BME280;51369;49.862;9.908;2023-03-03T01:15:43;98616.75;;;1.59;65.29
64876;BME280;51369;49.862;9.908;2023-03-03T01:18:09;98614.97;;;1.57;64.77
64876;BME280;51369;49.862;9.908;2023-03-03T01:20:35;98611.44;;;1.55;65.15
64876;BME280;51369;49.862;9.908;2023-03-03T01:23:01;98612.31;;;1.54;64.86
64876;BME280;51369;49.862;9.908;2023-03-03T01:25:27;98605.22;;;1.51;64.75
64876;BME280;51369;49.862;9.908;2023-03-03T01:27:53;98601.69;;;1.48;65.29
64876;BME280;51369;49.862;9.908;2023-03-03T01:30:18;98607.03;;;1.45;65.58
64876;BME280;51369;49.862;9.908;2023-03-03T01:32:44;98612.34;;;1.43;65.10
64876;BME280;51369;49.862;9.908;2023-03-03T01:35:09;98600.81;;;1.40;66.12
64876;BME280;51369;49.862;9.908;2023-03-03T01:37:35;98596.41;;;1.39;66.33
64876;BME280;51369;49.862;9.908;2023-03-03T01:40:02;98599.94;;;1.36;65.84
64876;BME280;51369;49.862;9.908;2023-03-03T01:42:28;98591.97;;;1.36;66.52
64876;BME280;51369;49.862;9.908;2023-03-03T01:45:11;98595.53;;;1.34;66.42
64876;BME280;51369;49.862;9.908;2023-03-03T01:47:37;98592.88;;;1.34;66.41
64876;BME280;51369;49.862;9.908;2023-03-03T01:50:05;98588.44;;;1.33;66.56
64876;BME280;51369;49.862;9.908;2023-03-03T01:52:38;98590.22;;;1.30;66.68
64876;BME280;51369;49.862;9.908;2023-03-03T01:55:08;98592.88;;;1.29;67.11
64876;BME280;51369;49.862;9.908;2023-03-03T01:57:40;98584.91;;;1.27;67.29
64876;BME280;51369;49.862;9.908;2023-03-03T02:00:09;98592.00;;;1.27;67.75
64876;BME280;51369;49.862;9.908;2023-03-03T02:02:40;98583.13;;;1.25;68.12
64876;BME280;51369;49.862;9.908;2023-03-03T02:05:07;98592.88;;;1.23;67.55
64876;BME280;51369;49.862;9.908;2023-03-03T02:07:33;98588.47;;;1.22;68.05
64876;BME280;51369;49.862;9.908;2023-03-03T02:10:08;98576.94;;;1.18;68.15
64876;BME280;51369;49.862;9.908;2023-03-03T02:12:42;98581.38;;;1.15;67.45
64876;BME280;51369;49.862;9.908;2023-03-03T02:15:24;98584.94;;;1.12;67.77
64876;BME280;51369;49.862;9.908;2023-03-03T02:17:54;98581.41;;;1.12;67.84
64876;BME280;51369;49.862;9.908;2023-03-03T02:28:31;98584.94;;;1.06;68.31
64876;BME280;51369;49.862;9.908;2023-03-03T02:31:04;98578.75;;;1.07;68.48
64876;BME280;51369;49.862;9.908;2023-03-03T02:33:30;98589.38;;;1.09;68.87
64876;BME280;51369;49.862;9.908;2023-03-03T02:35:55;98584.94;;;1.11;69.27
64876;BME280;51369;49.862;9.908;2023-03-03T02:38:26;98581.41;;;1.10;69.21
64876;BME280;51369;49.862;9.908;2023-03-03T02:44:02;98579.63;;;1.09;69.24
64876;BME280;51369;49.862;9.908;2023-03-03T02:46:33;98580.50;;;1.10;69.36
64876;BME280;51369;49.862;9.908;2023-03-03T02:48:59;98575.19;;;1.07;68.25
64876;BME280;51369;49.862;9.908;2023-03-03T02:51:25;98585.84;;;1.05;68.21
64876;BME280;51369;49.862;9.908;2023-03-03T02:53:50;98585.84;;;1.02;68.91
64876;BME280;51369;49.862;9.908;2023-03-03T02:56:16;98582.28;;;1.00;68.86
64876;BME280;51369;49.862;9.908;2023-03-03T02:58:41;98591.16;;;0.97;68.95
64876;BME280;51369;49.862;9.908;2023-03-03T03:01:07;98584.06;;;0.92;68.60
64876;BME280;51369;49.862;9.908;2023-03-03T03:03:33;98592.06;;;0.90;68.97
64876;BME280;51369;49.862;9.908;2023-03-03T03:06:00;98592.94;;;0.89;68.57
64876;BME280;51369;49.862;9.908;2023-03-03T03:08:26;98594.72;;;0.89;69.37
64876;BME280;51369;49.862;9.908;2023-03-03T03:10:51;98591.16;;;0.87;68.24
64876;BME280;51369;49.862;9.908;2023-03-03T03:13:17;98591.16;;;0.87;68.90
64876;BME280;51369;49.862;9.908;2023-03-03T03:15:46;98595.59;;;0.85;69.04
64876;BME280;51369;49.862;9.908;2023-03-03T03:18:12;98595.59;;;0.85;68.53
64876;BME280;51369;49.862;9.908;2023-03-03T03:20:39;98597.38;;;0.87;69.22
64876;BME280;51369;49.862;9.908;2023-03-03T03:23:07;98596.50;;;0.90;68.98
64876;BME280;51369;49.862;9.908;2023-03-03T03:25:33;98597.38;;;0.92;68.61
64876;BME280;51369;49.862;9.908;2023-03-03T03:27:59;98593.81;;;0.94;68.95
64876;BME280;51369;49.862;9.908;2023-03-03T03:30:25;98600.03;;;0.95;69.26
64876;BME280;51369;49.862;9.908;2023-03-03T03:32:51;98594.72;;;0.96;69.20
64876;BME280;51369;49.862;9.908;2023-03-03T03:35:17;98592.03;;;1.00;68.88
64876;BME280;51369;49.862;9.908;2023-03-03T03:37:43;98595.59;;;1.05;70.17
64876;BME280;51369;49.862;9.908;2023-03-03T03:40:10;98576.97;;;1.09;69.33
64876;BME280;51369;49.862;9.908;2023-03-03T03:42:35;98588.47;;;1.13;69.59
64876;BME280;51369;49.862;9.908;2023-03-03T03:45:03;98584.94;;;1.11;68.75
64876;BME280;51369;49.862;9.908;2023-03-03T03:47:28;98592.03;;;1.07;68.25
64876;BME280;51369;49.862;9.908;2023-03-03T03:49:56;98599.13;;;1.02;68.46
64876;BME280;51369;49.862;9.908;2023-03-03T03:52:21;98590.28;;;0.97;68.64
64876;BME280;51369;49.862;9.908;2023-03-03T03:54:47;98597.38;;;0.93;67.98
64876;BME280;51369;49.862;9.908;2023-03-03T03:57:12;98594.72;;;0.90;68.27
64876;BME280;51369;49.862;9.908;2023-03-03T03:59:39;98595.59;;;0.88;69.08
64876;BME280;51369;49.862;9.908;2023-03-03T04:02:04;98604.47;;;0.87;69.05
64876;BME280;51369;49.862;9.908;2023-03-03T04:04:30;98600.03;;;0.84;68.52
64876;BME280;51369;49.862;9.908;2023-03-03T04:06:55;98611.56;;;0.82;69.07
64876;BME280;51369;49.862;9.908;2023-03-03T04:09:21;98608.00;;;0.77;68.61
64876;BME280;51369;49.862;9.908;2023-03-03T04:11:47;98598.25;;;0.73;69.10
64876;BME280;51369;49.862;9.908;2023-03-03T04:14:14;98600.94;;;0.68;69.28
64876;BME280;51369;49.862;9.908;2023-03-03T04:16:39;98603.56;;;0.63;69.65
64876;BME280;51369;49.862;9.908;2023-03-03T04:19:05;98603.56;;;0.60;69.98
64876;BME280;51369;49.862;9.908;2023-03-03T04:21:32;98602.69;;;0.57;70.60
64876;BME280;51369;49.862;9.908;2023-03-03T04:23:59;98608.00;;;0.54;70.55
64876;BME280;51369;49.862;9.908;2023-03-03T04:26:26;98601.81;;;0.50;70.11
64876;BME280;51369;49.862;9.908;2023-03-03T04:28:51;98611.53;;;0.48;70.89
64876;BME280;51369;49.862;9.908;2023-03-03T04:31:18;98615.09;;;0.46;70.46
64876;BME280;51369;49.862;9.908;2023-03-03T04:33:44;98619.50;;;0.45;70.70
64876;BME280;51369;49.862;9.908;2023-03-03T04:36:10;98615.06;;;0.44;70.77
64876;BME280;51369;49.862;9.908;2023-03-03T04:38:36;98612.41;;;0.43;71.25
64876;BME280;51369;49.862;9.908;2023-03-03T04:41:02;98617.72;;;0.41;71.15
64876;BME280;51369;49.862;9.908;2023-03-03T04:43:32;98610.66;;;0.40;71.24
64876;BME280;51369;49.862;9.908;2023-03-03T04:45:57;98621.28;;;0.40;71.73
64876;BME280;51369;49.862;9.908;2023-03-03T04:48:22;98629.22;;;0.40;72.20
64876;BME280;51369;49.862;9.908;2023-03-03T04:50:48;98620.38;;;0.41;71.90
64876;BME280;51369;49.862;9.908;2023-03-03T04:53:13;98626.59;;;0.43;72.11
64876;BME280;51369;49.862;9.908;2023-03-03T04:55:40;98621.28;;;0.46;72.08
64876;BME280;51369;49.862;9.908;2023-03-03T04:58:06;98621.28;;;0.52;72.54
64876;BME280;51369;49.862;9.908;2023-03-03T05:00:35;98623.06;;;0.55;72.13
64876;BME280;51369;49.862;9.908;2023-03-03T05:03:01;98627.50;;;0.57;72.35
64876;BME280;51369;49.862;9.908;2023-03-03T05:05:26;98627.50;;;0.57;71.70
64876;BME280;51369;49.862;9.908;2023-03-03T05:07:52;98633.69;;;0.59;71.76
64876;BME280;51369;49.862;9.908;2023-03-03T05:10:17;98629.25;;;0.61;71.80
64876;BME280;51369;49.862;9.908;2023-03-03T05:12:43;98621.28;;;0.64;72.50
64876;BME280;51369;49.862;9.908;2023-03-03T05:15:09;98622.19;;;0.67;73.07
64876;BME280;51369;49.862;9.908;2023-03-03T05:17:35;98625.72;;;0.69;72.24
64876;BME280;51369;49.862;9.908;2023-03-03T05:20:01;98634.59;;;0.72;72.58
64876;BME280;51369;49.862;9.908;2023-03-03T05:22:26;98626.59;;;0.72;72.24
64876;BME280;51369;49.862;9.908;2023-03-03T05:24:52;98630.16;;;0.73;72.21
64876;BME280;51369;49.862;9.908;2023-03-03T05:27:18;98625.72;;;0.72;72.67
64876;BME280;51369;49.862;9.908;2023-03-03T05:29:44;98635.47;;;0.70;72.13
64876;BME280;51369;49.862;9.908;2023-03-03T05:32:09;98629.25;;;0.69;72.26
64876;BME280;51369;49.862;9.908;2023-03-03T05:34:35;98635.47;;;0.67;72.38
64876;BME280;51369;49.862;9.908;2023-03-03T05:37:00;98639.00;;;0.62;72.02
64876;BME280;51369;49.862;9.908;2023-03-03T05:39:28;98635.47;;;0.60;72.57
64876;BME280;51369;49.862;9.908;2023-03-03T05:41:53;98638.13;;;0.56;72.21
64876;BME280;51369;49.862;9.908;2023-03-03T05:44:20;98639.88;;;0.52;72.35
64876;BME280;51369;49.862;9.908;2023-03-03T05:46:45;98644.31;;;0.50;72.34
64876;BME280;51369;49.862;9.908;2023-03-03T05:49:10;98651.38;;;0.48;72.55
64876;BME280;51369;49.862;9.908;2023-03-03T05:51:36;98644.28;;;0.44;72.13
64876;BME280;51369;49.862;9.908;2023-03-03T05:54:01;98650.50;;;0.42;72.33
64876;BME280;51369;49.862;9.908;2023-03-03T05:56:26;98650.47;;;0.40;72.42
64876;BME280;51369;49.862;9.908;2023-03-03T05:58:52;98641.63;;;0.38;72.52
64876;BME280;51369;49.862;9.908;2023-03-03T06:01:17;98645.16;;;0.37;73.65
64876;BME280;51369;49.862;9.908;2023-03-03T06:03:43;98647.81;;;0.36;73.21
64876;BME280;51369;49.862;9.908;2023-03-03T06:06:08;98652.25;;;0.37;73.09
64876;BME280;51369;49.862;9.908;2023-03-03T06:08:34;98667.31;;;0.39;73.43
64876;BME280;51369;49.862;9.908;2023-03-03T06:11:00;98660.22;;;0.38;74.10
64876;BME280;51369;49.862;9.908;2023-03-03T06:13:25;98662.88;;;0.40;74.03
64876;BME280;51369;49.862;9.908;2023-03-03T06:15:51;98657.56;;;0.40;74.23
64876;BME280;51369;49.862;9.908;2023-03-03T06:18:17;98661.09;;;0.40;73.72
64876;BME280;51369;49.862;9.908;2023-03-03T06:20:42;98667.31;;;0.42;74.43
64876;BME280;51369;49.862;9.908;2023-03-03T06:23:07;98669.09;;;0.42;73.48
64876;BME280;51369;49.862;9.908;2023-03-03T06:25:33;98668.19;;;0.41;74.43
64876;BME280;51369;49.862;9.908;2023-03-03T06:28:00;98672.63;;;0.42;73.94
64876;BME280;51369;49.862;9.908;2023-03-03T06:30:26;98682.38;;;0.42;74.07
64876;BME280;51369;49.862;9.908;2023-03-03T06:32:53;98682.38;;;0.45;73.94
64876;BME280;51369;49.862;9.908;2023-03-03T06:35:18;98685.03;;;0.49;74.12
64876;BME280;51369;49.862;9.908;2023-03-03T06:37:44;98680.63;;;0.54;74.58
64876;BME280;51369;49.862;9.908;2023-03-03T06:40:10;98689.50;;;0.64;74.77
64876;BME280;51369;49.862;9.908;2023-03-03T06:42:36;98698.38;;;0.74;74.58
64876;BME280;51369;49.862;9.908;2023-03-03T06:45:02;98689.53;;;0.85;74.36
64876;BME280;51369;49.862;9.908;2023-03-03T06:47:27;98695.72;;;0.98;74.46
64876;BME280;51369;49.862;9.908;2023-03-03T06:49:53;98691.31;;;1.09;74.07
64876;BME280;51369;49.862;9.908;2023-03-03T06:52:24;98689.53;;;1.20;73.58
64876;BME280;51369;49.862;9.908;2023-03-03T06:54:53;98695.72;;;1.30;73.22
64876;BME280;51369;49.862;9.908;2023-03-03T06:57:24;98700.16;;;1.37;72.32
64876;BME280;51369;49.862;9.908;2023-03-03T06:59:53;98709.91;;;1.43;72.71
64876;BME280;51369;49.862;9.908;2023-03-03T07:02:20;98713.44;;;1.49;72.43
64876;BME280;51369;49.862;9.908;2023-03-03T07:04:46;98715.19;;;1.56;72.60
64876;BME280;51369;49.862;9.908;2023-03-03T07:07:19;98725.84;;;1.64;72.11
64876;BME280;51369;49.862;9.908;2023-03-03T07:09:47;98716.06;;;1.72;71.86
64876;BME280;51369;49.862;9.908;2023-03-03T07:12:25;98731.09;;;1.79;71.68
64876;BME280;51369;49.862;9.908;2023-03-03T07:14:55;98731.97;;;1.87;72.15
64876;BME280;51369;49.862;9.908;2023-03-03T07:17:24;98721.28;;;1.95;71.59
64876;BME280;51369;49.862;9.908;2023-03-03T07:19:50;98738.13;;;2.02;71.29
64876;BME280;51369;49.862;9.908;2023-03-03T07:22:24;98743.44;;;2.08;71.65
64876;BME280;51369;49.862;9.908;2023-03-03T07:24:56;98748.75;;;2.15;70.53
64876;BME280;51369;49.862;9.908;2023-03-03T07:27:27;98749.63;;;2.22;71.35
64876;BME280;51369;49.862;9.908;2023-03-03T07:32:39;98758.47;;;2.30;70.48
64876;BME280;51369;49.862;9.908;2023-03-03T07:35:34;98749.59;;;2.31;70.51
64876;BME280;51369;49.862;9.908;2023-03-03T07:38:01;98752.22;;;2.37;70.60
64876;BME280;51369;49.862;9.908;2023-03-03T07:42:58;98763.72;;;2.48;70.19
64876;BME280;51369;49.862;9.908;2023-03-03T07:45:34;98766.38;;;2.54;69.68
64876;BME280;51369;49.862;9.908;2023-03-03T07:50:39;98770.75;;;2.68;69.15
64876;BME280;51369;49.862;9.908;2023-03-03T07:53:14;98772.50;;;2.73;69.16
64876;BME280;51369;49.862;9.908;2023-03-03T07:55:44;98776.00;;;2.81;68.90
64876;BME280;51369;49.862;9.908;2023-03-03T08:03:18;98791.88;;;3.01;68.79
64876;BME280;51369;49.862;9.908;2023-03-03T08:05:49;98792.75;;;3.06;68.40
64876;BME280;51369;49.862;9.908;2023-03-03T08:08:20;98796.28;;;3.11;69.50
64876;BME280;51369;49.862;9.908;2023-03-03T08:10:52;98799.78;;;3.19;68.05
64876;BME280;51369;49.862;9.908;2023-03-03T08:16:19;98790.81;;;3.31;67.93
64876;BME280;51369;49.862;9.908;2023-03-03T08:18:49;98790.75;;;3.37;68.69
64876;BME280;51369;49.862;9.908;2023-03-03T08:21:20;98795.16;;;3.44;67.84
64876;BME280;51369;49.862;9.908;2023-03-03T08:23:46;98799.53;;;3.50;68.51
64876;BME280;51369;49.862;9.908;2023-03-03T08:26:13;98803.03;;;3.56;68.00
64876;BME280;51369;49.862;9.908;2023-03-03T08:28:39;98797.66;;;3.61;68.50
64876;BME280;51369;49.862;9.908;2023-03-03T08:31:04;98786.03;;;3.67;67.41
64876;BME280;51369;49.862;9.908;2023-03-03T08:33:30;98795.78;;;3.72;67.35
64876;BME280;51369;49.862;9.908;2023-03-03T08:35:55;98800.19;;;3.78;67.87
64876;BME280;51369;49.862;9.908;2023-03-03T08:38:21;98802.78;;;3.85;68.21
64876;BME280;51369;49.862;9.908;2023-03-03T08:40:47;98796.47;;;3.92;67.47
64876;BME280;51369;49.862;9.908;2023-03-03T08:43:14;98792.88;;;3.98;67.38
64876;BME280;51369;49.862;9.908;2023-03-03T08:45:45;98799.94;;;4.05;67.43
64876;BME280;51369;49.862;9.908;2023-03-03T08:48:11;98787.38;;;4.12;66.77
64876;BME280;51369;49.862;9.908;2023-03-03T08:50:36;98789.09;;;4.19;67.43
64876;BME280;51369;49.862;9.908;2023-03-03T08:53:03;98786.34;;;4.25;66.24
64876;BME280;51369;49.862;9.908;2023-03-03T08:55:29;98797.88;;;4.32;66.00
64876;BME280;51369;49.862;9.908;2023-03-03T08:57:55;98801.34;;;4.40;65.61
64876;BME280;51369;49.862;9.908;2023-03-03T09:00:20;98792.34;;;4.47;66.31
64876;BME280;51369;49.862;9.908;2023-03-03T09:02:46;98795.84;;;4.52;65.70
64876;BME280;51369;49.862;9.908;2023-03-03T09:05:12;98794.91;;;4.57;65.19
64876;BME280;51369;49.862;9.908;2023-03-03T09:07:40;98795.69;;;4.64;65.75
64876;BME280;51369;49.862;9.908;2023-03-03T09:10:06;98811.69;;;4.70;66.24
64876;BME280;51369;49.862;9.908;2023-03-03T09:12:34;98800.91;;;4.76;66.35
64876;BME280;51369;49.862;9.908;2023-03-03T09:17:37;98804.38;;;4.83;64.96
64876;BME280;51369;49.862;9.908;2023-03-03T09:20:30;98807.06;;;4.81;64.29
64876;BME280;51369;49.862;9.908;2023-03-03T09:25:48;98807.84;;;4.91;64.62
64876;BME280;51369;49.862;9.908;2023-03-03T09:30:48;98805.91;;;5.02;64.47
64876;BME280;51369;49.862;9.908;2023-03-03T09:33:41;98811.25;;;5.04;64.45
64876;BME280;51369;49.862;9.908;2023-03-03T09:36:29;98808.50;;;5.08;63.62
64876;BME280;51369;49.862;9.908;2023-03-03T09:39:00;98804.84;;;5.15;63.97
64876;BME280;51369;49.862;9.908;2023-03-03T09:41:55;98798.53;;;5.19;64.00
64876;BME280;51369;49.862;9.908;2023-03-03T09:44:48;98801.94;;;5.28;64.03
64876;BME280;51369;49.862;9.908;2023-03-03T09:50:06;98808.84;;;5.44;63.76
64876;BME280;51369;49.862;9.908;2023-03-03T09:53:06;98813.16;;;5.52;63.78
64876;BME280;51369;49.862;9.908;2023-03-03T09:55:35;98817.47;;;5.63;64.21
64876;BME280;51369;49.862;9.908;2023-03-03T09:58:59;98812.00;;;5.69;63.16
64876;BME280;51369;49.862;9.908;2023-03-03T10:05:15;98814.44;;;5.84;63.01
64876;BME280;51369;49.862;9.908;2023-03-03T10:10:30;98811.38;;;6.08;62.91
64876;BME280;51369;49.862;9.908;2023-03-03T10:16:15;98822.56;;;6.32;63.23
64876;BME280;51369;49.862;9.908;2023-03-03T10:18:57;98821.44;;;6.43;61.93
64876;BME280;51369;49.862;9.908;2023-03-03T10:21:29;98815.88;;;6.54;61.70
64876;BME280;51369;49.862;9.908;2023-03-03T10:24:16;98813.94;;;6.62;61.72
64876;BME280;51369;49.862;9.908;2023-03-03T10:29:46;98812.66;;;6.81;61.00
64876;BME280;51369;49.862;9.908;2023-03-03T10:32:34;98816.03;;;6.91;60.90
64876;BME280;51369;49.862;9.908;2023-03-03T10:35:29;98829.22;;;7.00;60.96
64876;BME280;51369;49.862;9.908;2023-03-03T10:38:24;98835.25;;;7.11;60.73
64876;BME280;51369;49.862;9.908;2023-03-03T10:54:07;98834.94;;;7.64;59.56
64876;BME280;51369;49.862;9.908;2023-03-03T10:57:06;98839.25;;;7.71;59.18
64876;BME280;51369;49.862;9.908;2023-03-03T11:00:02;98828.19;;;7.84;59.67
64876;BME280;51369;49.862;9.908;2023-03-03T11:05:42;98827.56;;;8.09;58.59
64876;BME280;51369;49.862;9.908;2023-03-03T11:08:23;98830.78;;;8.23;58.39
64876;BME280;51369;49.862;9.908;2023-03-03T11:11:25;98820.56;;;8.37;57.96
64876;BME280;51369;49.862;9.908;2023-03-03T11:14:12;98812.13;;;8.51;57.45
64876;BME280;51369;49.862;9.908;2023-03-03T11:16:54;98821.59;;;8.66;57.15
64876;BME280;51369;49.862;9.908;2023-03-03T11:19:53;98813.13;;;8.78;57.34
64876;BME280;51369;49.862;9.908;2023-03-03T11:22:36;98814.50;;;8.93;56.51
64876;BME280;51369;49.862;9.908;2023-03-03T11:33:22;98800.06;;;9.54;55.35
64876;BME280;51369;49.862;9.908;2023-03-03T11:36:17;98791.28;;;9.75;55.64
64876;BME280;51369;49.862;9.908;2023-03-03T11:39:06;98790.66;;;9.94;53.99
64876;BME280;51369;49.862;9.908;2023-03-03T11:46:52;98775.84;;;10.33;52.99
64876;BME280;51369;49.862;9.908;2023-03-03T11:49:36;98777.25;;;10.43;53.27
64876;BME280;51369;49.862;9.908;2023-03-03T11:52:20;98767.94;;;10.52;52.32
64876;BME280;51369;49.862;9.908;2023-03-03T11:54:55;98771.19;;;10.62;52.41
64876;BME280;51369;49.862;9.908;2023-03-03T12:00:04;98767.63;;;10.85;51.88
64876;BME280;51369;49.862;9.908;2023-03-03T12:02:59;98771.63;;;10.98;51.88
64876;BME280;51369;49.862;9.908;2023-03-03T12:05:42;98760.41;;;11.08;53.15
64876;BME280;51369;49.862;9.908;2023-03-03T12:08:35;98760.22;;;11.13;51.84
64876;BME280;51369;49.862;9.908;2023-03-03T12:16:57;98754.81;;;11.36;51.04
64876;BME280;51369;49.862;9.908;2023-03-03T12:22:10;98737.22;;;11.48;49.26
64876;BME280;51369;49.862;9.908;2023-03-03T12:25:00;98733.19;;;11.58;48.82
64876;BME280;51369;49.862;9.908;2023-03-03T12:27:37;98727.41;;;11.67;47.39
64876;BME280;51369;49.862;9.908;2023-03-03T12:30:35;98712.56;;;11.78;48.80
64876;BME280;51369;49.862;9.908;2023-03-03T12:39:11;98707.94;;;12.01;47.99
64876;BME280;51369;49.862;9.908;2023-03-03T12:41:43;98714.72;;;12.12;48.05
64876;BME280;51369;49.862;9.908;2023-03-03T12:44:22;98706.38;;;12.16;47.61
64876;BME280;51369;49.862;9.908;2023-03-03T12:46:58;98708.81;;;12.22;48.07
64876;BME280;51369;49.862;9.908;2023-03-03T12:49:38;98707.72;;;12.26;49.73
64876;BME280;51369;49.862;9.908;2023-03-03T12:58:00;98696.94;;;12.45;47.96
64876;BME280;51369;49.862;9.908;2023-03-03T13:00:46;98689.56;;;12.49;46.52
64876;BME280;51369;49.862;9.908;2023-03-03T13:06:22;98686.66;;;12.53;45.90
64876;BME280;51369;49.862;9.908;2023-03-03T13:11:46;98685.13;;;12.66;45.84
64876;BME280;51369;49.862;9.908;2023-03-03T13:14:39;98680.25;;;12.75;45.75
64876;BME280;51369;49.862;9.908;2023-03-03T13:19:59;98677.59;;;12.73;43.04
64876;BME280;51369;49.862;9.908;2023-03-03T13:22:47;98681.19;;;12.74;43.32
64876;BME280;51369;49.862;9.908;2023-03-03T13:28:04;98679.09;;;12.80;42.16
64876;BME280;51369;49.862;9.908;2023-03-03T13:30:34;98683.53;;;12.81;41.79
64876;BME280;51369;49.862;9.908;2023-03-03T13:33:13;98686.03;;;12.86;42.93
64876;BME280;51369;49.862;9.908;2023-03-03T13:35:47;98679.31;;;12.94;43.52
64876;BME280;51369;49.862;9.908;2023-03-03T13:38:40;98679.03;;;13.00;45.58
64876;BME280;51369;49.862;9.908;2023-03-03T13:41:25;98672.34;;;13.08;43.94
64876;BME280;51369;49.862;9.908;2023-03-03T13:43:57;98671.06;;;13.16;44.29
64876;BME280;51369;49.862;9.908;2023-03-03T13:46:35;98680.72;;;13.22;43.85
64876;BME280;51369;49.862;9.908;2023-03-03T13:52:20;98661.94;;;13.36;43.96
64876;BME280;51369;49.862;9.908;2023-03-03T13:55:21;98665.50;;;13.55;45.45
64876;BME280;51369;49.862;9.908;2023-03-03T13:58:10;98670.97;;;13.73;43.63
64876;BME280;51369;49.862;9.908;2023-03-03T14:01:00;98661.25;;;13.86;44.00
64876;BME280;51369;49.862;9.908;2023-03-03T14:06:06;98654.81;;;13.87;42.05
64876;BME280;51369;49.862;9.908;2023-03-03T14:19:51;98646.88;;;13.84;41.71
64876;BME280;51369;49.862;9.908;2023-03-03T14:22:26;98647.75;;;13.84;43.95
64876;BME280;51369;49.862;9.908;2023-03-03T14:28:00;98639.41;;;13.87;44.33
64876;BME280;51369;49.862;9.908;2023-03-03T14:30:46;98645.84;;;13.86;42.40
64876;BME280;51369;49.862;9.908;2023-03-03T14:35:48;98641.91;;;13.75;42.44
64876;BME280;51369;49.862;9.908;2023-03-03T14:38:23;98644.88;;;13.70;41.77
64876;BME280;51369;49.862;9.908;2023-03-03T14:41:09;98637.91;;;13.64;42.52
64876;BME280;51369;49.862;9.908;2023-03-03T14:43:42;98633.44;;;13.63;42.03
64876;BME280;51369;49.862;9.908;2023-03-03T14:48:57;98632.31;;;13.50;43.84
64876;BME280;51369;49.862;9.908;2023-03-03T14:53:51;98632.47;;;13.47;42.99
64876;BME280;51369;49.862;9.908;2023-03-03T14:58:48;98637.25;;;13.42;43.00
64876;BME280;51369;49.862;9.908;2023-03-03T15:01:34;98639.31;;;13.37;41.95
64876;BME280;51369;49.862;9.908;2023-03-03T15:04:27;98630.13;;;13.40;42.79
64876;BME280;51369;49.862;9.908;2023-03-03T15:06:54;98626.31;;;13.44;44.10
64876;BME280;51369;49.862;9.908;2023-03-03T15:09:33;98632.63;;;13.44;43.07
64876;BME280;51369;49.862;9.908;2023-03-03T15:12:22;98628.06;;;13.45;42.80
64876;BME280;51369;49.862;9.908;2023-03-03T15:15:03;98630.72;;;13.46;43.49
64876;BME280;51369;49.862;9.908;2023-03-03T15:17:43;98630.63;;;13.48;42.34
64876;BME280;51369;49.862;9.908;2023-03-03T15:20:41;98632.16;;;13.53;42.44
64876;BME280;51369;49.862;9.908;2023-03-03T15:23:37;98628.50;;;13.54;43.14
64876;BME280;51369;49.862;9.908;2023-03-03T15:28:52;98638.47;;;13.54;44.28
64876;BME280;51369;49.862;9.908;2023-03-03T15:37:12;98624.25;;;13.49;42.15
64876;BME280;51369;49.862;9.908;2023-03-03T15:42:24;98627.00;;;13.30;43.76
64876;BME280;51369;49.862;9.908;2023-03-03T15:47:59;98618.06;;;12.71;43.97
64876;BME280;51369;49.862;9.908;2023-03-03T15:50:36;98618.88;;;12.55;43.36
64876;BME280;51369;49.862;9.908;2023-03-03T15:53:15;98622.34;;;12.38;44.33
64876;BME280;51369;49.862;9.908;2023-03-03T15:58:55;98629.13;;;12.09;44.57
64876;BME280;51369;49.862;9.908;2023-03-03T16:01:34;98626.84;;;12.00;44.47
64876;BME280;51369;49.862;9.908;2023-03-03T16:04:09;98628.19;;;11.90;44.77
64876;BME280;51369;49.862;9.908;2023-03-03T16:07:03;98625.88;;;11.81;45.48
64876;BME280;51369;49.862;9.908;2023-03-03T16:18:19;98639.88;;;11.48;44.47
64876;BME280;51369;49.862;9.908;2023-03-03T16:23:13;98643.34;;;11.30;46.71
64876;BME280;51369;49.862;9.908;2023-03-03T16:25:54;98645.34;;;11.25;45.96
64876;BME280;51369;49.862;9.908;2023-03-03T16:33:48;98638.13;;;11.03;49.45
64876;BME280;51369;49.862;9.908;2023-03-03T16:36:42;98644.81;;;10.93;48.87